createdAt,value
2017-03-04T00:00:12.584Z,7.75
2017-03-04T00:00:34.293Z,7.77
2017-03-04T00:00:56.070Z,7.77
2017-03-04T00:01:22.686Z,7.78
2017-03-04T00:01:44.544Z,7.81
2017-03-04T00:02:06.379Z,7.80
2017-03-04T00:02:28.111Z,7.80
2017-03-04T00:02:49.938Z,7.80
2017-03-04T00:03:19.282Z,7.78
2017-03-04T00:03:40.993Z,7.72
2017-03-04T00:04:12.278Z,7.69
2017-03-04T00:04:34.003Z,7.63
2017-03-04T00:05:41.418Z,7.61
2017-03-04T00:06:34.511Z,7.66
2017-03-04T00:06:58.907Z,7.73
2017-03-04T00:07:20.610Z,7.75
2017-03-04T00:07:42.347Z,7.76
2017-03-04T00:08:18.382Z,7.74
2017-03-04T00:08:45.588Z,7.76
2017-03-04T00:09:07.286Z,7.73
2017-03-04T00:09:29.016Z,7.75
2017-03-04T00:09:50.850Z,7.77
2017-03-04T00:10:12.557Z,7.74
2017-03-04T00:10:34.288Z,7.74
2017-03-04T00:11:10.319Z,7.73
2017-03-04T00:11:37.434Z,7.69
2017-03-04T00:11:59.147Z,7.68
2017-03-04T00:13:11.328Z,7.69
2017-03-04T00:13:33.030Z,7.70
2017-03-04T00:13:54.756Z,7.71
2017-03-04T00:14:21.359Z,7.75
2017-03-04T00:14:42.985Z,7.76
2017-03-04T00:15:45.603Z,7.77
2017-03-04T00:16:12.080Z,7.78
2017-03-04T00:16:33.788Z,7.74
2017-03-04T00:17:00.288Z,7.74
2017-03-04T00:17:22.104Z,7.75
2017-03-04T00:17:43.809Z,7.76
2017-03-04T00:18:15.062Z,7.76
2017-03-04T00:18:39.596Z,7.75
2017-03-04T00:19:06.104Z,7.76
2017-03-04T00:19:27.813Z,7.79
2017-03-04T00:19:49.522Z,7.81
2017-03-04T00:20:20.780Z,7.78
2017-03-04T00:20:42.490Z,7.75
2017-03-04T00:21:07.052Z,7.74
2017-03-04T00:21:28.782Z,7.69
2017-03-04T00:21:50.605Z,7.66
2017-03-04T00:22:21.876Z,7.73
2017-03-04T00:22:46.104Z,7.78
2017-03-04T00:23:10.512Z,7.70
2017-03-04T00:23:32.337Z,7.66
2017-03-04T00:23:58.802Z,7.64
2017-03-04T00:24:23.382Z,7.62
2017-03-04T00:24:45.085Z,7.62
2017-03-04T00:25:09.798Z,7.63
2017-03-04T00:26:12.418Z,7.55
2017-03-04T00:26:34.212Z,7.59
2017-03-04T00:27:00.780Z,7.61
2017-03-04T00:27:22.483Z,7.67
2017-03-04T00:27:44.337Z,7.69
2017-03-04T00:28:10.914Z,7.66
2017-03-04T00:28:32.642Z,7.65
2017-03-04T00:28:59.128Z,7.59
2017-03-04T00:29:20.832Z,7.67
2017-03-04T00:30:23.957Z,7.68
2017-03-04T00:30:49.818Z,7.74
2017-03-04T00:31:16.478Z,7.68
2017-03-04T00:31:38.281Z,7.71
2017-03-04T00:32:00.037Z,7.73
2017-03-04T00:32:24.846Z,7.72
2017-03-04T00:32:47.413Z,7.75
2017-03-04T00:33:19.956Z,7.71
2017-03-04T00:33:47.941Z,7.71
2017-03-04T00:34:19.098Z,7.73
2017-03-04T00:34:53.274Z,7.72
2017-03-04T00:36:39.528Z,7.76
2017-03-04T00:37:09.488Z,7.74
2017-03-04T00:37:45.385Z,7.73
2017-03-04T00:38:07.159Z,7.71
2017-03-04T00:38:36.886Z,7.74
2017-03-04T00:38:58.630Z,7.75
2017-03-04T00:39:30.066Z,7.74
2017-03-04T00:40:20.590Z,7.88
2017-03-04T00:40:42.550Z,7.86
2017-03-04T00:42:12.730Z,7.82
2017-03-04T00:42:34.700Z,7.86
2017-03-04T00:42:56.521Z,7.85
2017-03-04T00:43:18.342Z,7.80
2017-03-04T00:43:40.879Z,7.82
2017-03-04T00:44:03.813Z,7.86
2017-03-04T00:45:06.474Z,7.84
2017-03-04T00:45:42.693Z,7.84
2017-03-04T00:46:46.686Z,7.72
2017-03-04T00:47:08.709Z,7.72
2017-03-04T00:47:30.429Z,7.71
2017-03-04T00:47:57.384Z,7.72
2017-03-04T00:48:51.407Z,7.75
2017-03-04T00:49:45.465Z,7.75
2017-03-04T00:50:08.248Z,7.81
2017-03-04T00:50:31.724Z,7.78
2017-03-04T00:50:56.060Z,7.72
2017-03-04T00:51:22.254Z,7.76
2017-03-04T00:51:44.448Z,7.74
2017-03-04T00:52:07.860Z,7.72
2017-03-04T00:52:32.550Z,7.74
2017-03-04T00:53:35.548Z,7.71
2017-03-04T00:54:42.873Z,7.65
2017-03-04T00:55:04.846Z,7.63
2017-03-04T00:55:26.722Z,7.69
2017-03-04T00:55:49.020Z,7.69
2017-03-04T00:56:24.623Z,7.67
2017-03-04T00:57:33.522Z,7.70
2017-03-04T00:57:55.753Z,7.72
2017-03-04T00:58:23.808Z,7.66
2017-03-04T00:58:46.326Z,7.63
2017-03-04T00:59:08.771Z,7.54
2017-03-04T00:59:34.649Z,7.46
2017-03-04T01:00:36.298Z,7.44
2017-03-04T01:01:39.531Z,7.36
2017-03-04T01:02:49.235Z,7.39
2017-03-04T01:03:10.966Z,7.37
2017-03-04T01:03:32.691Z,7.38
2017-03-04T01:03:55.143Z,7.37
2017-03-04T01:04:49.354Z,7.42
2017-03-04T01:05:51.989Z,7.50
2017-03-04T01:06:13.821Z,7.52
2017-03-04T01:06:37.179Z,7.52
2017-03-04T01:06:59.202Z,7.55
2017-03-04T01:07:21.558Z,7.56
2017-03-04T01:07:44.653Z,7.51
2017-03-04T01:08:19.566Z,7.48
2017-03-04T01:08:41.317Z,7.46
2017-03-04T01:09:07.827Z,7.46
2017-03-04T01:09:38.904Z,7.48
2017-03-04T01:10:01.659Z,7.45
2017-03-04T01:10:23.973Z,7.43
2017-03-04T01:10:46.381Z,7.47
2017-03-04T01:11:10.809Z,7.49
2017-03-04T01:12:04.832Z,7.44
2017-03-04T01:12:26.738Z,7.39
2017-03-04T01:12:49.743Z,7.33
2017-03-04T01:13:41.572Z,7.34
2017-03-04T01:14:04.033Z,7.21
2017-03-04T01:14:57.490Z,7.25
2017-03-04T01:15:20.778Z,7.36
2017-03-04T01:15:48.749Z,7.37
2017-03-04T01:16:10.731Z,7.36
2017-03-04T01:16:37.583Z,7.34
2017-03-04T01:17:08.916Z,7.36
2017-03-04T01:17:32.964Z,7.36
2017-03-04T01:18:40.399Z,7.29
2017-03-04T01:19:29.011Z,7.28
2017-03-04T01:19:56.988Z,7.24
2017-03-04T01:20:26.742Z,7.25
2017-03-04T01:20:48.566Z,7.26
2017-03-04T01:22:18.120Z,7.31
2017-03-04T01:22:42.218Z,7.28
2017-03-04T01:23:04.555Z,7.26
2017-03-04T01:23:27.316Z,7.20
2017-03-04T01:23:50.503Z,7.16
2017-03-04T01:24:12.342Z,7.20
2017-03-04T01:24:39.667Z,7.09
2017-03-04T01:25:06.475Z,7.00
2017-03-04T01:25:28.258Z,6.97
2017-03-04T01:25:51.045Z,6.99
2017-03-04T01:26:17.362Z,7.10
2017-03-04T01:26:44.159Z,7.14
2017-03-04T01:27:06.996Z,7.12
2017-03-04T01:29:22.070Z,7.03
2017-03-04T01:29:54.461Z,7.05
2017-03-04T01:30:16.188Z,7.11
2017-03-04T01:30:38.100Z,7.15
2017-03-04T01:31:36.252Z,7.11
2017-03-04T01:32:05.524Z,7.07
2017-03-04T01:32:27.830Z,7.08
2017-03-04T01:32:49.725Z,7.08
2017-03-04T01:33:11.840Z,7.03
2017-03-04T01:33:37.096Z,7.00
2017-03-04T01:33:59.244Z,7.03
2017-03-04T01:34:21.588Z,7.07
2017-03-04T01:34:46.120Z,7.10
2017-03-04T01:35:08.262Z,7.10
2017-03-04T01:35:31.698Z,7.15
2017-03-04T01:35:54.267Z,7.15
2017-03-04T01:36:25.553Z,7.13
2017-03-04T01:37:32.298Z,7.14
2017-03-04T01:37:54.075Z,7.09
2017-03-04T01:38:25.058Z,7.09
2017-03-04T01:38:47.904Z,7.08
2017-03-04T01:39:58.258Z,7.07
2017-03-04T01:40:25.047Z,7.13
2017-03-04T01:40:55.180Z,7.16
2017-03-04T01:41:19.428Z,7.18
2017-03-04T01:41:41.145Z,7.16
2017-03-04T01:42:34.146Z,7.18
2017-03-04T01:42:55.887Z,7.19
2017-03-04T01:43:22.373Z,7.13
2017-03-04T01:43:44.063Z,7.11
2017-03-04T01:44:05.782Z,7.10
2017-03-04T01:44:32.268Z,7.07
2017-03-04T01:44:53.966Z,7.02
2017-03-04T01:45:15.664Z,6.99
2017-03-04T01:45:37.386Z,7.00
2017-03-04T01:45:59.073Z,7.03
2017-03-04T01:46:20.776Z,7.03
2017-03-04T01:46:42.479Z,7.04
2017-03-04T01:47:04.166Z,7.03
2017-03-04T01:47:25.869Z,7.00
2017-03-04T01:47:47.599Z,6.98
2017-03-04T01:48:09.295Z,6.97
2017-03-04T01:48:30.985Z,6.99
2017-03-04T01:49:02.248Z,6.94
2017-03-04T01:49:23.938Z,6.89
2017-03-04T01:49:45.638Z,6.86
2017-03-04T01:50:07.336Z,6.85
2017-03-04T01:50:29.042Z,6.90
2017-03-04T01:51:00.288Z,6.94
2017-03-04T01:51:21.995Z,6.92
2017-03-04T01:51:43.692Z,6.89
2017-03-04T01:52:05.394Z,6.89
2017-03-04T01:52:27.089Z,6.93
2017-03-04T01:52:48.821Z,6.94
2017-03-04T01:53:10.522Z,6.97
2017-03-04T01:53:32.239Z,6.96
2017-03-04T01:53:53.938Z,6.93
2017-03-04T01:54:15.652Z,6.94
2017-03-04T01:54:37.342Z,6.93
2017-03-04T01:54:59.042Z,6.94
2017-03-04T01:55:20.749Z,6.85
2017-03-04T01:55:42.443Z,6.86
2017-03-04T01:56:04.152Z,6.84
2017-03-04T01:56:25.847Z,6.85
2017-03-04T01:56:57.093Z,6.81
2017-03-04T01:57:18.789Z,6.84
2017-03-04T01:57:40.494Z,6.84
2017-03-04T01:58:02.218Z,6.89
2017-03-04T01:58:23.904Z,6.90
2017-03-04T01:58:45.594Z,6.94
2017-03-04T01:59:07.302Z,6.87
2017-03-04T01:59:28.998Z,6.81
2017-03-04T01:59:50.691Z,6.82
2017-03-04T02:00:12.391Z,6.75
2017-03-04T02:00:34.083Z,6.82
2017-03-04T02:00:55.788Z,6.86
2017-03-04T02:01:22.269Z,6.77
2017-03-04T02:01:43.970Z,6.74
2017-03-04T02:02:05.687Z,6.68
2017-03-04T02:02:36.946Z,6.69
2017-03-04T02:02:58.639Z,6.70
2017-03-04T02:03:20.345Z,6.71
2017-03-04T02:03:42.060Z,6.78
2017-03-04T02:04:03.751Z,6.79
2017-03-04T02:04:30.215Z,6.79
2017-03-04T02:04:51.911Z,6.84
2017-03-04T02:05:13.611Z,6.86
2017-03-04T02:05:35.314Z,6.83
2017-03-04T02:05:57.006Z,6.79
2017-03-04T02:06:18.718Z,6.79
2017-03-04T02:06:40.427Z,6.80
2017-03-04T02:07:02.132Z,6.85
2017-03-04T02:07:28.621Z,6.86
2017-03-04T02:07:50.330Z,6.86
2017-03-04T02:08:12.047Z,6.87
2017-03-04T02:08:33.756Z,6.85
2017-03-04T02:09:05.007Z,6.86
2017-03-04T02:09:26.721Z,6.81
2017-03-04T02:09:53.190Z,6.81
2017-03-04T02:10:14.889Z,6.81
2017-03-04T02:10:41.374Z,6.82
2017-03-04T02:11:03.075Z,6.80
2017-03-04T02:11:29.546Z,6.75
2017-03-04T02:11:51.246Z,6.73
2017-03-04T02:12:17.710Z,6.72
2017-03-04T02:12:39.402Z,6.74
2017-03-04T02:13:01.096Z,6.68
2017-03-04T02:13:32.352Z,6.66
2017-03-04T02:13:54.044Z,6.66
2017-03-04T02:14:15.746Z,6.70
2017-03-04T02:14:37.453Z,6.74
2017-03-04T02:14:59.141Z,6.80
2017-03-04T02:15:30.395Z,6.82
2017-03-04T02:15:52.128Z,6.79
2017-03-04T02:16:18.594Z,6.72
2017-03-04T02:16:40.293Z,6.66
2017-03-04T02:17:02.000Z,6.66
2017-03-04T02:17:38.040Z,6.65
2017-03-04T02:18:00.296Z,6.66
2017-03-04T02:18:22.017Z,6.64
2017-03-04T02:18:43.716Z,6.67
2017-03-04T02:19:05.424Z,6.68
2017-03-04T02:19:27.127Z,6.70
2017-03-04T02:19:48.824Z,6.66
2017-03-04T02:20:10.527Z,6.66
2017-03-04T02:20:32.226Z,6.59
2017-03-04T02:20:53.927Z,6.55
2017-03-04T02:21:15.633Z,6.48
2017-03-04T02:21:37.340Z,6.52
2017-03-04T02:21:59.057Z,6.48
2017-03-04T02:22:25.528Z,6.44
2017-03-04T02:22:47.218Z,6.48
2017-03-04T02:23:08.920Z,6.53
2017-03-04T02:23:30.647Z,6.53
2017-03-04T02:23:52.352Z,6.50
2017-03-04T02:24:14.041Z,6.54
2017-03-04T02:24:40.529Z,6.56
2017-03-04T02:25:02.239Z,6.58
2017-03-04T02:25:23.935Z,6.59
2017-03-04T02:25:45.640Z,6.62
2017-03-04T02:26:07.355Z,6.58
2017-03-04T02:26:29.057Z,6.59
2017-03-04T02:26:55.534Z,6.60
2017-03-04T02:27:17.230Z,6.65
2017-03-04T02:27:38.926Z,6.68
2017-03-04T02:28:00.630Z,6.65
2017-03-04T02:28:22.324Z,6.64
2017-03-04T02:28:44.046Z,6.64
2017-03-04T02:29:10.513Z,6.63
2017-03-04T02:29:32.222Z,6.64
2017-03-04T02:29:53.921Z,6.65
2017-03-04T02:30:15.625Z,6.67
2017-03-04T02:30:37.323Z,6.71
2017-03-04T02:30:59.038Z,6.70
2017-03-04T02:31:20.744Z,6.74
2017-03-04T02:31:42.440Z,6.69
2017-03-04T02:32:04.126Z,6.65
2017-03-04T02:32:25.840Z,6.63
2017-03-04T02:32:47.535Z,6.61
2017-03-04T02:33:09.233Z,6.60
2017-03-04T02:33:30.952Z,6.62
2017-03-04T02:33:52.664Z,6.64
2017-03-04T02:34:19.138Z,6.64
2017-03-04T02:34:40.817Z,6.60
2017-03-04T02:35:02.511Z,6.63
2017-03-04T02:35:24.235Z,6.67
2017-03-04T02:35:50.696Z,6.66
2017-03-04T02:36:12.407Z,6.62
2017-03-04T02:36:34.119Z,6.66
2017-03-04T02:37:00.593Z,6.64
2017-03-04T02:37:22.290Z,6.57
2017-03-04T02:37:48.764Z,6.54
2017-03-04T02:38:10.456Z,6.50
2017-03-04T02:38:36.940Z,6.55
2017-03-04T02:38:58.670Z,6.58
2017-03-04T02:39:20.377Z,6.63
2017-03-04T02:39:42.079Z,6.70
2017-03-04T02:40:08.555Z,6.75
2017-03-04T02:40:30.254Z,6.81
2017-03-04T02:40:51.950Z,6.80
2017-03-04T02:41:18.442Z,6.75
2017-03-04T02:41:40.129Z,6.68
2017-03-04T02:42:01.834Z,6.69
2017-03-04T02:42:28.296Z,6.70
2017-03-04T02:42:49.993Z,6.68
2017-03-04T02:43:11.691Z,6.63
2017-03-04T02:43:33.397Z,6.62
2017-03-04T02:43:55.088Z,6.64
2017-03-04T02:44:16.790Z,6.60
2017-03-04T02:45:19.297Z,6.57
2017-03-04T02:45:40.993Z,6.57
2017-03-04T02:46:02.692Z,6.55
2017-03-04T02:46:24.384Z,6.56
2017-03-04T02:46:55.635Z,6.60
2017-03-04T02:47:17.336Z,6.62
2017-03-04T02:47:43.824Z,6.64
2017-03-04T02:48:05.519Z,6.68
2017-03-04T02:48:27.224Z,6.73
2017-03-04T02:48:48.925Z,6.68
2017-03-04T02:49:10.667Z,6.59
2017-03-04T02:49:37.138Z,6.48
2017-03-04T02:49:58.841Z,6.44
2017-03-04T02:50:20.543Z,6.46
2017-03-04T02:50:47.032Z,6.48
2017-03-04T02:51:08.712Z,6.57
2017-03-04T02:51:35.208Z,6.58
2017-03-04T02:51:56.915Z,6.56
2017-03-04T02:52:23.390Z,6.52
2017-03-04T02:52:45.096Z,6.46
2017-03-04T02:53:11.571Z,6.41
2017-03-04T02:53:33.278Z,6.41
2017-03-04T02:53:54.977Z,6.43
2017-03-04T02:54:16.710Z,6.46
2017-03-04T02:54:38.427Z,6.44
2017-03-04T02:55:00.124Z,6.44
2017-03-04T02:55:21.843Z,6.42
2017-03-04T02:55:48.295Z,6.39
2017-03-04T02:56:09.995Z,6.40
2017-03-04T02:56:31.794Z,6.42
2017-03-04T02:56:53.490Z,6.45
2017-03-04T02:57:15.179Z,6.46
2017-03-04T02:57:36.873Z,6.49
2017-03-04T02:57:58.585Z,6.52
2017-03-04T02:58:20.275Z,6.46
2017-03-04T02:58:41.974Z,6.42
2017-03-04T02:59:03.671Z,6.43
2017-03-04T02:59:25.398Z,6.42
2017-03-04T02:59:51.875Z,6.44
2017-03-04T03:00:13.571Z,6.46
2017-03-04T03:00:35.294Z,6.50
2017-03-04T03:00:56.991Z,6.51
2017-03-04T03:01:21.416Z,6.52
2017-03-04T03:01:43.114Z,6.58
2017-03-04T03:02:04.798Z,6.59
2017-03-04T03:02:36.055Z,6.58
2017-03-04T03:02:57.749Z,6.62
2017-03-04T03:03:24.222Z,6.64
2017-03-04T03:03:45.912Z,6.63
2017-03-04T03:04:07.609Z,6.64
2017-03-04T03:04:29.333Z,6.64
2017-03-04T03:04:51.029Z,6.66
2017-03-04T03:05:12.734Z,6.66
2017-03-04T03:05:39.210Z,6.64
2017-03-04T03:06:00.908Z,6.61
2017-03-04T03:06:22.606Z,6.63
2017-03-04T03:06:44.307Z,6.68
2017-03-04T03:07:06.024Z,6.67
2017-03-04T03:07:27.713Z,6.63
2017-03-04T03:07:54.182Z,6.61
2017-03-04T03:08:15.877Z,6.56
2017-03-04T03:08:37.579Z,6.53
2017-03-04T03:08:59.285Z,6.48
2017-03-04T03:09:20.986Z,6.46
2017-03-04T03:09:42.696Z,6.47
2017-03-04T03:10:04.403Z,6.39
2017-03-04T03:10:26.108Z,6.38
2017-03-04T03:10:47.798Z,6.36
2017-03-04T03:11:14.280Z,6.38
2017-03-04T03:11:35.992Z,6.39
2017-03-04T03:11:57.680Z,6.43
2017-03-04T03:12:19.388Z,6.46
2017-03-04T03:12:41.085Z,6.40
2017-03-04T03:13:02.782Z,6.38
2017-03-04T03:13:24.483Z,6.40
2017-03-04T03:13:46.175Z,6.41
2017-03-04T03:14:07.882Z,6.42
2017-03-04T03:14:29.602Z,6.42
2017-03-04T03:14:51.293Z,6.43
2017-03-04T03:15:12.987Z,6.43
2017-03-04T03:15:39.468Z,6.44
2017-03-04T03:16:05.935Z,6.37
2017-03-04T03:16:27.640Z,6.32
2017-03-04T03:16:49.366Z,6.24
2017-03-04T03:17:11.056Z,6.21
2017-03-04T03:17:37.535Z,6.20
2017-03-04T03:17:59.221Z,6.25
2017-03-04T03:18:25.708Z,6.25
2017-03-04T03:18:47.415Z,6.24
2017-03-04T03:19:09.128Z,6.24
2017-03-04T03:19:30.849Z,6.23
2017-03-04T03:19:52.547Z,6.24
2017-03-04T03:20:14.241Z,6.29
2017-03-04T03:20:40.727Z,6.36
2017-03-04T03:21:02.412Z,6.34
2017-03-04T03:21:24.110Z,6.32
2017-03-04T03:21:45.846Z,6.33
2017-03-04T03:22:07.536Z,6.35
2017-03-04T03:22:29.230Z,6.32
2017-03-04T03:22:55.703Z,6.31
2017-03-04T03:23:17.417Z,6.30
2017-03-04T03:23:43.890Z,6.27
2017-03-04T03:24:05.591Z,6.26
2017-03-04T03:24:27.297Z,6.28
2017-03-04T03:24:49.004Z,6.28
2017-03-04T03:25:10.693Z,6.32
2017-03-04T03:25:37.177Z,6.32
2017-03-04T03:25:58.872Z,6.31
2017-03-04T03:26:20.565Z,6.33
2017-03-04T03:26:42.273Z,6.36
2017-03-04T03:27:03.964Z,6.38
2017-03-04T03:27:25.672Z,6.34
2017-03-04T03:27:47.371Z,6.34
2017-03-04T03:28:09.084Z,6.33
2017-03-04T03:28:30.773Z,6.31
2017-03-04T03:28:52.478Z,6.31
2017-03-04T03:29:14.185Z,6.32
2017-03-04T03:29:35.908Z,6.32
2017-03-04T03:30:02.384Z,6.32
2017-03-04T03:30:24.067Z,6.31
2017-03-04T03:30:55.311Z,6.29
2017-03-04T03:31:17.014Z,6.30
2017-03-04T03:31:48.258Z,6.34
2017-03-04T03:32:09.956Z,6.30
2017-03-04T03:32:31.651Z,6.31
2017-03-04T03:32:53.354Z,6.37
2017-03-04T03:33:15.049Z,6.42
2017-03-04T03:33:41.518Z,6.41
2017-03-04T03:34:03.211Z,6.40
2017-03-04T03:34:24.919Z,6.39
2017-03-04T03:34:46.643Z,6.36
2017-03-04T03:35:08.331Z,6.32
2017-03-04T03:35:30.031Z,6.30
2017-03-04T03:35:51.731Z,6.27
2017-03-04T03:36:13.426Z,6.29
2017-03-04T03:36:35.137Z,6.32
2017-03-04T03:37:01.609Z,6.36
2017-03-04T03:37:23.296Z,6.34
2017-03-04T03:37:44.995Z,6.34
2017-03-04T03:38:06.707Z,6.31
2017-03-04T03:38:28.402Z,6.29
2017-03-04T03:38:50.100Z,6.32
2017-03-04T03:39:16.582Z,6.34
2017-03-04T03:39:38.281Z,6.41
2017-03-04T03:40:00.004Z,6.43
2017-03-04T03:40:21.715Z,6.38
2017-03-04T03:40:43.411Z,6.35
2017-03-04T03:41:05.103Z,6.34
2017-03-04T03:41:26.809Z,6.33
2017-03-04T03:41:48.496Z,6.28
2017-03-04T03:42:10.190Z,6.27
2017-03-04T03:42:36.663Z,6.30
2017-03-04T03:42:58.361Z,6.30
2017-03-04T03:43:20.058Z,6.34
2017-03-04T03:43:41.759Z,6.38
2017-03-04T03:44:06.276Z,6.34
2017-03-04T03:44:32.761Z,6.30
2017-03-04T03:44:54.456Z,6.34
2017-03-04T03:45:16.170Z,6.30
2017-03-04T03:45:37.869Z,6.31
2017-03-04T03:45:59.573Z,6.33
2017-03-04T03:46:26.048Z,6.31
2017-03-04T03:46:47.744Z,6.32
2017-03-04T03:47:09.434Z,6.38
2017-03-04T03:47:35.902Z,6.39
2017-03-04T03:47:57.595Z,6.35
2017-03-04T03:48:24.067Z,6.35
2017-03-04T03:48:45.763Z,6.35
2017-03-04T03:49:07.453Z,6.39
2017-03-04T03:49:33.926Z,6.34
2017-03-04T03:49:55.622Z,6.34
2017-03-04T03:50:17.348Z,6.34
2017-03-04T03:50:39.047Z,6.33
2017-03-04T03:51:03.662Z,6.35
2017-03-04T03:51:25.359Z,6.32
2017-03-04T03:51:47.076Z,6.33
2017-03-04T03:52:13.548Z,6.32
2017-03-04T03:52:35.247Z,6.29
2017-03-04T03:52:56.958Z,6.31
2017-03-04T03:53:23.416Z,6.35
2017-03-04T03:53:45.107Z,6.37
2017-03-04T03:54:11.582Z,6.39
2017-03-04T03:54:33.283Z,6.41
2017-03-04T03:54:54.982Z,6.40
2017-03-04T03:55:16.710Z,6.38
2017-03-04T03:56:04.888Z,6.30
2017-03-04T03:56:26.579Z,6.33
2017-03-04T03:56:48.281Z,6.32
2017-03-04T03:57:19.540Z,6.36
2017-03-04T03:57:41.245Z,6.37
2017-03-04T03:58:07.718Z,6.37
2017-03-04T03:58:29.410Z,6.37
2017-03-04T03:59:56.912Z,6.38
2017-03-04T04:00:18.630Z,6.37
2017-03-04T04:00:40.342Z,6.34
2017-03-04T04:01:06.819Z,6.35
2017-03-04T04:01:28.508Z,6.31
2017-03-04T04:01:50.208Z,6.28
2017-03-04T04:02:11.909Z,6.32
2017-03-04T04:02:33.597Z,6.32
2017-03-04T04:02:55.292Z,6.35
2017-03-04T04:03:16.995Z,6.33
2017-03-04T04:03:38.694Z,6.30
2017-03-04T04:04:00.384Z,6.31
2017-03-04T04:04:26.851Z,6.36
2017-03-04T04:04:48.544Z,6.40
2017-03-04T04:05:10.245Z,6.37
2017-03-04T04:05:31.971Z,6.42
2017-03-04T04:05:53.661Z,6.45
2017-03-04T04:06:24.923Z,6.47
2017-03-04T04:06:46.637Z,6.42
2017-03-04T04:07:08.333Z,6.46
2017-03-04T04:07:30.039Z,6.43
2017-03-04T04:07:51.739Z,6.39
2017-03-04T04:08:18.224Z,6.40
2017-03-04T04:08:39.926Z,6.38
2017-03-04T04:09:01.650Z,6.28
2017-03-04T04:09:28.122Z,6.26
2017-03-04T04:09:49.808Z,6.21
2017-03-04T04:10:16.280Z,6.15
2017-03-04T04:10:38.012Z,6.10
2017-03-04T04:11:04.480Z,6.13
2017-03-04T04:11:26.190Z,6.13
2017-03-04T04:11:47.899Z,6.16
2017-03-04T04:12:59.948Z,6.20
2017-03-04T04:13:21.667Z,6.20
2017-03-04T04:13:43.368Z,6.21
2017-03-04T04:14:09.854Z,6.24
2017-03-04T04:14:31.553Z,6.24
2017-03-04T04:14:53.259Z,6.22
2017-03-04T04:15:14.965Z,6.21
2017-03-04T04:15:36.659Z,6.20
2017-03-04T04:15:58.387Z,6.15
2017-03-04T04:16:20.097Z,6.11
2017-03-04T04:16:41.787Z,6.14
2017-03-04T04:17:13.040Z,6.19
2017-03-04T04:17:34.727Z,6.19
2017-03-04T04:18:10.761Z,6.19
2017-03-04T04:18:33.054Z,6.18
2017-03-04T04:18:54.752Z,6.15
2017-03-04T04:19:26.006Z,6.11
2017-03-04T04:19:47.718Z,6.05
2017-03-04T04:20:09.420Z,6.04
2017-03-04T04:20:31.120Z,6.02
2017-03-04T04:20:52.847Z,6.00
2017-03-04T04:21:19.325Z,6.00
2017-03-04T04:21:41.021Z,5.99
2017-03-04T04:22:02.733Z,5.99
2017-03-04T04:22:24.431Z,5.98
2017-03-04T04:22:46.127Z,6.03
2017-03-04T04:23:07.831Z,6.03
2017-03-04T04:23:29.550Z,6.04
2017-03-04T04:23:51.232Z,6.04
2017-03-04T04:24:12.926Z,6.05
2017-03-04T04:24:39.412Z,6.06
2017-03-04T04:25:01.107Z,6.09
2017-03-04T04:25:22.817Z,6.07
2017-03-04T04:25:49.289Z,5.99
2017-03-04T04:26:10.997Z,5.93
2017-03-04T04:26:37.466Z,6.02
2017-03-04T04:26:59.175Z,6.01
2017-03-04T04:27:25.641Z,6.01
2017-03-04T04:27:47.340Z,6.00
2017-03-04T04:28:13.814Z,5.90
2017-03-04T04:28:35.502Z,5.89
2017-03-04T04:28:57.200Z,5.89
2017-03-04T04:29:23.691Z,5.92
2017-03-04T04:29:45.380Z,5.95
2017-03-04T04:30:07.086Z,6.00
2017-03-04T04:30:28.792Z,6.03
2017-03-04T04:30:50.500Z,6.10
2017-03-04T04:31:12.220Z,6.12
2017-03-04T04:31:43.494Z,6.12
2017-03-04T04:32:05.183Z,6.14
2017-03-04T04:33:07.686Z,6.11
2017-03-04T04:33:29.405Z,6.09
2017-03-04T04:33:51.094Z,6.03
2017-03-04T04:34:12.782Z,6.03
2017-03-04T04:34:34.500Z,6.00
2017-03-04T04:34:56.201Z,5.95
2017-03-04T04:35:22.673Z,5.90
2017-03-04T04:35:44.370Z,5.88
2017-03-04T04:36:06.076Z,5.91
2017-03-04T04:36:27.812Z,6.00
2017-03-04T04:36:49.515Z,6.07
2017-03-04T04:37:20.758Z,6.07
2017-03-04T04:37:42.460Z,6.09
2017-03-04T04:38:04.159Z,6.12
2017-03-04T04:38:30.636Z,6.05
2017-03-04T04:38:52.335Z,5.98
2017-03-04T04:39:18.825Z,5.93
2017-03-04T04:39:40.518Z,5.92
2017-03-04T04:40:02.214Z,5.85
2017-03-04T04:40:23.924Z,5.85
2017-03-04T04:40:45.618Z,5.80
2017-03-04T04:41:07.315Z,5.76
2017-03-04T04:41:33.798Z,5.71
2017-03-04T04:41:55.500Z,5.70
2017-03-04T04:42:17.191Z,5.75
2017-03-04T04:42:38.905Z,5.75
2017-03-04T04:43:00.608Z,5.73
2017-03-04T04:43:22.303Z,5.69
2017-03-04T04:43:44.000Z,5.72
2017-03-04T04:44:05.698Z,5.66
2017-03-04T04:44:27.405Z,5.63
2017-03-04T04:44:53.894Z,5.58
2017-03-04T04:45:15.573Z,5.62
2017-03-04T04:45:37.267Z,5.65
2017-03-04T04:46:03.740Z,5.65
2017-03-04T04:46:25.463Z,5.56
2017-03-04T04:46:47.169Z,5.59
2017-03-04T04:47:08.873Z,5.60
2017-03-04T04:47:30.576Z,5.62
2017-03-04T04:47:52.265Z,5.60
2017-03-04T04:48:13.969Z,5.64
2017-03-04T04:48:35.666Z,5.67
2017-03-04T04:48:57.374Z,5.71
2017-03-04T04:49:28.623Z,5.72
2017-03-04T04:49:50.329Z,5.70
2017-03-04T04:50:12.016Z,5.67
2017-03-04T04:50:33.718Z,5.63
2017-03-04T04:50:55.405Z,5.63
2017-03-04T04:51:24.505Z,5.65
2017-03-04T04:51:46.233Z,5.66
2017-03-04T04:52:07.926Z,5.68
2017-03-04T04:52:29.631Z,5.69
2017-03-04T04:52:51.359Z,5.71
2017-03-04T04:53:17.852Z,5.72
2017-03-04T04:53:39.552Z,5.67
2017-03-04T04:54:06.026Z,5.69
2017-03-04T04:54:27.715Z,5.67
2017-03-04T04:54:54.202Z,5.65
2017-03-04T04:55:20.671Z,5.53
2017-03-04T04:55:42.361Z,5.54
2017-03-04T04:56:04.066Z,5.52
2017-03-04T04:56:30.540Z,5.50
2017-03-04T04:56:52.265Z,5.52
2017-03-04T04:57:18.748Z,5.53
2017-03-04T04:57:40.431Z,5.53
2017-03-04T04:58:06.909Z,5.44
2017-03-04T04:58:28.610Z,5.47
2017-03-04T04:58:50.333Z,5.49
2017-03-04T04:59:12.056Z,5.51
2017-03-04T04:59:33.762Z,5.53
2017-03-04T04:59:55.459Z,5.60
2017-03-04T05:00:17.162Z,5.68
2017-03-04T05:00:38.852Z,5.72
2017-03-04T05:01:00.541Z,5.75
2017-03-04T05:01:22.244Z,5.76
2017-03-04T05:01:53.515Z,5.76
2017-03-04T05:02:15.231Z,5.78
2017-03-04T05:02:36.933Z,5.79
2017-03-04T05:03:08.195Z,5.86
2017-03-04T05:03:29.896Z,5.88
2017-03-04T05:03:51.593Z,5.89
2017-03-04T05:04:18.081Z,5.90
2017-03-04T05:04:39.774Z,5.88
2017-03-04T05:05:01.476Z,5.93
2017-03-04T05:05:23.187Z,5.89
2017-03-04T05:05:44.887Z,5.85
2017-03-04T05:06:06.606Z,5.82
2017-03-04T05:06:28.309Z,5.83
2017-03-04T05:06:49.999Z,5.81
2017-03-04T05:07:16.489Z,5.83
2017-03-04T05:07:38.199Z,5.84
2017-03-04T05:08:09.452Z,5.88
2017-03-04T05:08:31.158Z,5.93
2017-03-04T05:08:52.867Z,5.93
2017-03-04T05:09:14.576Z,5.92
2017-03-04T05:09:36.489Z,5.93
2017-03-04T05:10:39.004Z,5.93
2017-03-04T05:11:05.475Z,5.94
2017-03-04T05:11:27.173Z,5.91
2017-03-04T05:11:53.648Z,5.87
2017-03-04T05:12:15.379Z,5.84
2017-03-04T05:12:41.857Z,5.84
2017-03-04T05:13:03.555Z,5.82
2017-03-04T05:13:56.514Z,5.76
2017-03-04T05:14:18.213Z,5.71
2017-03-04T05:14:44.706Z,5.69
2017-03-04T05:15:06.388Z,5.67
2017-03-04T05:15:32.915Z,5.66
2017-03-04T05:15:54.616Z,5.69
2017-03-04T05:16:21.096Z,5.72
2017-03-04T05:16:42.790Z,5.73
2017-03-04T05:17:04.491Z,5.74
2017-03-04T05:17:26.210Z,5.75
2017-03-04T05:17:57.593Z,5.75
2017-03-04T05:18:19.434Z,5.74
2017-03-04T05:18:50.707Z,5.78
2017-03-04T05:19:13.445Z,5.78
2017-03-04T05:19:35.189Z,5.81
2017-03-04T05:20:06.460Z,5.84
2017-03-04T05:20:28.204Z,5.81
2017-03-04T05:20:59.475Z,5.80
2017-03-04T05:21:21.227Z,5.80
2017-03-04T05:21:52.485Z,5.88
2017-03-04T05:22:14.235Z,5.87
2017-03-04T05:22:45.504Z,5.83
2017-03-04T05:23:07.250Z,5.78
2017-03-04T05:23:38.517Z,5.73
2017-03-04T05:24:00.238Z,5.75
2017-03-04T05:24:31.506Z,5.81
2017-03-04T05:24:53.244Z,5.84
2017-03-04T05:25:24.504Z,5.86
2017-03-04T05:25:46.236Z,5.86
2017-03-04T05:26:12.757Z,5.83
2017-03-04T05:26:34.504Z,5.82
2017-03-04T05:26:56.256Z,5.79
2017-03-04T05:27:22.755Z,5.74
2017-03-04T05:27:44.469Z,5.77
2017-03-04T05:28:47.031Z,5.77
2017-03-04T05:29:08.755Z,5.79
2017-03-04T05:29:30.492Z,5.82
2017-03-04T05:29:52.246Z,5.81
2017-03-04T05:31:04.318Z,5.86
2017-03-04T05:31:57.324Z,5.80
2017-03-04T05:32:23.804Z,5.76
2017-03-04T05:32:45.554Z,5.76
2017-03-04T05:33:12.066Z,5.76
2017-03-04T05:33:33.823Z,5.77
2017-03-04T05:34:00.307Z,5.80
2017-03-04T05:34:26.844Z,5.69
2017-03-04T05:34:48.601Z,5.64
2017-03-04T05:35:15.132Z,5.59
2017-03-04T05:35:37.091Z,5.56
2017-03-04T05:36:13.146Z,5.53
2017-03-04T05:36:45.014Z,5.53
2017-03-04T05:37:06.810Z,5.56
2017-03-04T05:37:28.537Z,5.49
2017-03-04T05:37:55.022Z,5.49
2017-03-04T05:38:16.752Z,5.45
2017-03-04T05:38:38.518Z,5.41
2017-03-04T05:39:09.804Z,5.43
2017-03-04T05:39:31.550Z,5.46
2017-03-04T05:39:53.484Z,5.49
2017-03-04T05:40:19.979Z,5.50
2017-03-04T05:40:41.775Z,5.53
2017-03-04T05:41:13.146Z,5.60
2017-03-04T05:42:06.238Z,5.68
2017-03-04T05:42:28.012Z,5.72